createdAt,value
2019-03-02T00:02:26.436Z,6.60
2019-03-02T00:05:01.969Z,6.20
2019-03-02T00:07:34.666Z,5.77
2019-03-02T00:10:10.092Z,5.53
2019-03-02T00:12:42.482Z,6.17
2019-03-02T00:15:14.573Z,5.00
2019-03-02T00:17:50.662Z,5.87
2019-03-02T00:20:22.433Z,6.23
2019-03-02T00:22:56.297Z,5.57
2019-03-02T00:25:30.672Z,4.10
2019-03-02T00:28:01.445Z,5.87
2019-03-02T00:30:33.216Z,5.00
2019-03-02T00:33:06.530Z,4.93
2019-03-02T00:35:39.814Z,5.63
2019-03-02T00:38:13.336Z,6.53
2019-03-02T00:40:46.539Z,5.87
2019-03-02T00:43:23.750Z,4.50
2019-03-02T00:45:54.534Z,8.93
2019-03-02T00:48:30.209Z,6.40
2019-03-02T00:51:01.641Z,5.67
2019-03-02T00:53:37.298Z,6.03
2019-03-02T00:56:09.138Z,6.13
2019-03-02T00:58:44.249Z,6.47
2019-03-02T01:01:15.624Z,5.77
2019-03-02T01:03:50.354Z,7.13
2019-03-02T01:06:24.232Z,7.10
2019-03-02T01:08:56.498Z,8.83
2019-03-02T01:11:32.921Z,6.03
2019-03-02T01:14:03.699Z,6.17
2019-03-02T01:16:36.696Z,6.70
2019-03-02T01:19:07.921Z,6.83
2019-03-02T01:21:42.347Z,9.60
2019-03-02T01:24:13.995Z,9.80
2019-03-02T01:26:46.835Z,11.90
2019-03-02T01:29:20.658Z,7.60
2019-03-02T01:31:52.729Z,6.77
2019-03-02T01:34:26.020Z,8.20
2019-03-02T01:36:58.874Z,7.40
2019-03-02T01:39:31.815Z,6.90
2019-03-02T01:42:04.953Z,6.57
2019-03-02T01:44:36.666Z,5.50
2019-03-02T01:47:07.866Z,5.53
2019-03-02T01:49:40.716Z,6.07
2019-03-02T01:52:13.874Z,3.97
2019-03-02T01:54:46.816Z,4.90
2019-03-02T01:57:19.817Z,4.97
2019-03-02T01:59:52.799Z,3.90
2019-03-02T02:02:25.795Z,3.10
2019-03-02T02:04:58.823Z,2.20
2019-03-02T02:07:32.065Z,2.17
2019-03-02T02:10:07.189Z,1.93
2019-03-02T02:12:41.025Z,1.83
2019-03-02T02:15:15.528Z,5.07
2019-03-02T02:17:49.571Z,8.70
2019-03-02T02:20:25.526Z,5.33
2019-03-02T02:22:59.145Z,5.00
2019-03-02T02:25:32.578Z,3.00
2019-03-02T02:28:09.634Z,2.80
2019-03-02T02:30:41.161Z,5.47
2019-03-02T02:33:15.810Z,2.67
2019-03-02T02:35:47.007Z,7.30
2019-03-02T02:38:20.142Z,6.20
2019-03-02T02:40:54.117Z,3.63
2019-03-02T02:43:26.988Z,3.13
2019-03-02T02:46:00.725Z,4.43
2019-03-02T02:48:33.310Z,2.80
2019-03-02T02:51:09.886Z,3.60
2019-03-02T02:53:40.251Z,3.60
2019-03-02T02:56:14.357Z,3.60
2019-03-02T02:58:55.657Z,4.33
2019-03-02T03:01:23.098Z,3.27
2019-03-02T03:03:59.517Z,4.60
2019-03-02T03:06:32.583Z,5.10
2019-03-02T03:09:09.627Z,3.53
2019-03-02T03:11:44.278Z,7.80
2019-03-02T03:14:15.044Z,4.20
2019-03-02T03:16:49.439Z,8.00
2019-03-02T03:19:26.264Z,6.90
2019-03-02T03:21:57.432Z,4.97
2019-03-02T03:24:39.974Z,4.20
2019-03-02T03:27:08.958Z,4.13
2019-03-02T03:29:44.470Z,6.97
2019-03-02T03:32:14.968Z,5.27
2019-03-02T03:34:46.431Z,8.30
2019-03-02T03:37:17.645Z,4.70
2019-03-02T03:39:49.340Z,7.00
2019-03-02T03:42:24.362Z,6.43
2019-03-02T03:44:59.652Z,8.03
2019-03-02T03:47:28.378Z,4.60
2019-03-02T03:50:01.422Z,5.27
2019-03-02T03:52:35.332Z,4.67
2019-03-02T03:55:07.774Z,5.17
2019-03-02T03:57:40.379Z,7.30
2019-03-02T04:00:15.661Z,6.33
2019-03-02T04:02:49.437Z,5.50
2019-03-02T04:05:20.656Z,7.90
2019-03-02T04:07:54.741Z,7.37
2019-03-02T04:10:30.055Z,8.03
2019-03-02T04:13:04.975Z,8.10
2019-03-02T04:15:41.857Z,9.10
2019-03-02T04:18:50.264Z,8.53
2019-03-02T04:21:29.833Z,6.10
2019-03-02T04:24:03.146Z,6.43
2019-03-02T04:26:36.407Z,6.57
2019-03-02T04:29:09.902Z,8.70
2019-03-02T04:31:44.110Z,9.20
2019-03-02T04:34:20.258Z,8.57
2019-03-02T04:36:49.186Z,8.13
2019-03-02T04:39:21.665Z,6.40
2019-03-02T04:41:55.447Z,6.83
2019-03-02T04:44:29.659Z,7.37
2019-03-02T04:50:27.058Z,10.27
2019-03-02T04:53:01.675Z,8.97
2019-03-02T04:55:35.705Z,7.50
2019-03-02T04:58:12.010Z,5.43
2019-03-02T05:00:41.693Z,11.90
2019-03-02T05:03:13.836Z,5.80
2019-03-02T05:05:45.435Z,6.40
2019-03-02T05:08:17.670Z,5.60
2019-03-02T05:10:49.666Z,5.17
2019-03-02T05:13:24.771Z,5.20
2019-03-02T05:15:56.050Z,4.53
2019-03-02T05:18:28.812Z,7.93
2019-03-02T05:21:01.832Z,5.43
2019-03-02T05:23:34.750Z,8.83
2019-03-02T05:26:07.731Z,9.37
2019-03-02T05:28:43.028Z,7.57
2019-03-02T05:31:17.928Z,5.97
2019-03-02T05:33:51.538Z,7.00
2019-03-02T05:36:26.668Z,6.50
2019-03-02T05:38:56.049Z,6.30
2019-03-02T05:41:29.105Z,9.03
2019-03-02T05:44:01.894Z,5.23
2019-03-02T05:46:35.603Z,7.43
2019-03-02T05:49:08.031Z,9.80
2019-03-02T05:51:42.688Z,10.10
2019-03-02T05:54:20.477Z,10.00
2019-03-02T05:56:52.927Z,8.00
2019-03-02T05:59:27.656Z,10.77
2019-03-02T06:02:02.079Z,10.43
2019-03-02T06:04:35.347Z,10.97
2019-03-02T06:07:07.874Z,12.70
2019-03-02T06:09:52.595Z,19.40
2019-03-02T06:12:29.687Z,16.03
2019-03-02T06:15:04.017Z,12.87
2019-03-02T06:17:37.616Z,13.43
2019-03-02T06:20:11.625Z,14.67
2019-03-02T06:22:43.878Z,19.73
2019-03-02T06:25:20.719Z,13.77
2019-03-02T06:27:50.116Z,14.27
2019-03-02T06:30:23.167Z,19.30
2019-03-02T06:32:56.207Z,17.27
2019-03-02T06:35:32.813Z,16.20
2019-03-02T06:38:05.159Z,16.33
2019-03-02T06:40:37.606Z,17.03
2019-03-02T06:43:09.592Z,18.70
2019-03-02T06:45:43.565Z,15.13
2019-03-02T06:48:14.265Z,16.10
2019-03-02T06:50:46.611Z,18.63
2019-03-02T06:53:20.126Z,15.57
2019-03-02T06:55:56.900Z,16.17
2019-03-02T06:58:29.469Z,24.20
2019-03-02T07:01:01.235Z,20.87
2019-03-02T07:03:35.276Z,19.33
2019-03-02T07:06:08.526Z,27.07
2019-03-02T07:08:41.252Z,24.37
2019-03-02T07:11:14.208Z,26.13
2019-03-02T07:13:47.327Z,24.00
2019-03-02T07:16:20.047Z,24.23
2019-03-02T07:19:00.195Z,22.93
2019-03-02T07:21:32.416Z,26.57
2019-03-02T07:24:05.410Z,23.80
2019-03-02T07:26:37.663Z,33.50
2019-03-02T07:29:13.890Z,29.33
2019-03-02T07:31:46.372Z,26.33
2019-03-02T07:34:21.853Z,34.20
2019-03-02T07:36:53.478Z,27.27
2019-03-02T07:39:28.816Z,28.20
2019-03-02T07:42:01.315Z,27.70
2019-03-02T07:44:35.282Z,36.63
2019-03-02T07:47:06.481Z,38.90
2019-03-02T07:49:37.778Z,32.27
2019-03-02T07:52:09.372Z,31.93
2019-03-02T07:54:42.559Z,32.80
2019-03-02T07:57:17.828Z,52.63
2019-03-02T07:59:50.719Z,32.20
2019-03-02T08:02:25.839Z,30.23
2019-03-02T08:04:56.568Z,34.13
2019-03-02T08:07:29.533Z,34.83
2019-03-02T08:10:03.285Z,28.67
2019-03-02T08:12:37.522Z,21.53
2019-03-02T08:15:12.166Z,21.10
2019-03-02T08:17:48.937Z,20.83
2019-03-02T08:20:20.787Z,16.23
2019-03-02T08:22:53.739Z,9.53
2019-03-02T08:25:26.762Z,13.37
2019-03-02T08:27:58.439Z,16.40
2019-03-02T08:30:33.421Z,11.17
2019-03-02T08:33:05.066Z,9.20
2019-03-02T08:35:36.640Z,15.67
2019-03-02T08:38:11.432Z,12.73
2019-03-02T08:40:44.660Z,10.00
2019-03-02T08:43:17.209Z,10.57
2019-03-02T08:45:50.677Z,17.43
2019-03-02T08:48:25.239Z,10.87
2019-03-02T08:50:59.903Z,10.33
2019-03-02T08:53:34.419Z,11.90
2019-03-02T08:56:11.891Z,12.00
2019-03-02T08:58:43.769Z,9.40
2019-03-02T09:01:18.653Z,13.57
2019-03-02T09:03:50.512Z,8.80
2019-03-02T09:06:25.359Z,13.03
2019-03-02T09:08:58.917Z,9.30
2019-03-02T09:11:31.736Z,10.63
2019-03-02T09:14:04.758Z,9.70
2019-03-02T09:16:38.531Z,8.37
2019-03-02T09:19:10.913Z,8.63
2019-03-02T09:21:44.713Z,8.83
2019-03-02T09:24:19.830Z,9.83
2019-03-02T09:26:52.927Z,11.67
2019-03-02T09:29:25.908Z,11.50
2019-03-02T09:31:58.898Z,14.23
2019-03-02T09:34:32.927Z,11.93
2019-03-02T09:37:08.130Z,14.37
2019-03-02T09:39:41.089Z,15.33
2019-03-02T09:42:14.049Z,18.73
2019-03-02T09:44:50.044Z,17.27
2019-03-02T09:47:22.973Z,19.13
2019-03-02T09:49:57.073Z,21.73
2019-03-02T09:52:31.007Z,17.27
2019-03-02T09:55:03.405Z,26.77
2019-03-02T09:57:34.992Z,27.00
2019-03-02T10:00:23.833Z,24.07
2019-03-02T10:02:53.199Z,39.77
2019-03-02T10:05:26.487Z,38.47
2019-03-02T10:07:58.348Z,37.33
2019-03-02T10:10:33.313Z,29.43
2019-03-02T10:13:08.243Z,36.87
2019-03-02T10:15:41.115Z,34.47
2019-03-02T10:18:13.940Z,36.93
2019-03-02T10:20:47.978Z,36.80
2019-03-02T10:23:21.281Z,31.93
2019-03-02T10:25:53.248Z,34.60
2019-03-02T10:28:26.187Z,28.27
2019-03-02T10:31:02.621Z,31.93
2019-03-02T10:33:33.198Z,33.20
2019-03-02T10:36:06.856Z,27.40
2019-03-02T10:38:39.335Z,34.17
2019-03-02T10:41:12.729Z,23.13
2019-03-02T10:43:45.583Z,16.43
2019-03-02T10:46:17.232Z,18.83
2019-03-02T10:48:50.886Z,13.80
2019-03-02T10:51:24.366Z,15.10
2019-03-02T10:57:10.428Z,13.53
2019-03-02T10:59:42.423Z,12.90
2019-03-02T11:02:16.882Z,11.10
2019-03-02T11:04:57.132Z,12.67
2019-03-02T11:07:44.934Z,15.53
2019-03-02T11:10:28.614Z,17.37
2019-03-02T11:13:19.215Z,12.77
2019-03-02T11:16:15.547Z,15.30
2019-03-02T11:18:54.591Z,13.93
2019-03-02T11:21:39.469Z,10.00
2019-03-02T11:24:40.437Z,11.67
2019-03-02T11:27:35.626Z,12.47
2019-03-02T11:30:20.103Z,11.00
2019-03-02T11:33:12.409Z,12.10
2019-03-02T11:36:02.718Z,16.13
2019-03-02T11:38:52.298Z,16.00
2019-03-02T11:41:32.448Z,15.30
2019-03-02T11:44:24.405Z,16.43
2019-03-02T11:47:16.749Z,16.83
2019-03-02T11:50:10.768Z,17.10
2019-03-02T11:53:18.659Z,16.70
2019-03-02T11:56:02.955Z,18.30
2019-03-02T11:59:09.386Z,14.90
2019-03-02T12:02:15.379Z,16.37
2019-03-02T12:05:03.664Z,19.17
2019-03-02T12:07:55.463Z,12.70
2019-03-02T12:10:36.819Z,14.40
2019-03-02T12:13:20.202Z,16.63
2019-03-02T12:16:02.152Z,16.70
2019-03-02T12:18:59.028Z,17.60
2019-03-02T12:21:57.751Z,19.30
2019-03-02T12:24:50.868Z,15.97
2019-03-02T12:27:45.854Z,20.27
2019-03-02T12:30:26.171Z,21.17
2019-03-02T12:33:43.607Z,17.63
2019-03-02T12:36:36.782Z,16.73
2019-03-02T12:39:19.984Z,19.83
2019-03-02T12:42:15.603Z,16.63
2019-03-02T12:45:12.627Z,15.20
2019-03-02T12:48:10.766Z,16.43
2019-03-02T12:50:58.617Z,18.57
2019-03-02T12:53:48.972Z,15.60
2019-03-02T12:56:42.037Z,15.17
2019-03-02T12:59:46.988Z,15.97
2019-03-02T13:02:33.415Z,18.80
2019-03-02T13:05:31.167Z,18.63
2019-03-02T13:08:17.751Z,13.33
2019-03-02T13:11:13.136Z,17.90
2019-03-02T13:14:10.718Z,11.30
2019-03-02T13:16:51.489Z,16.17
2019-03-02T13:19:41.833Z,14.47
2019-03-02T13:22:26.193Z,13.60
2019-03-02T13:25:13.925Z,14.67
2019-03-02T13:28:01.025Z,14.53
2019-03-02T13:30:52.615Z,15.53
2019-03-02T13:33:48.907Z,12.90
2019-03-02T13:36:30.317Z,12.20
2019-03-02T13:39:17.827Z,15.67
2019-03-02T13:42:01.134Z,15.00
2019-03-02T13:47:51.496Z,17.77
2019-03-02T13:50:58.852Z,16.07
2019-03-02T13:53:47.794Z,13.07
2019-03-02T13:56:38.131Z,16.97
2019-03-02T13:59:18.935Z,14.50
2019-03-02T14:02:22.148Z,15.50
2019-03-02T14:05:18.083Z,18.53
2019-03-02T14:08:17.870Z,15.97
2019-03-02T14:11:11.227Z,12.57
2019-03-02T14:14:03.740Z,15.30
2019-03-02T14:17:12.866Z,19.50
2019-03-02T14:20:07.444Z,16.23
2019-03-02T14:22:48.815Z,13.90
2019-03-02T14:25:48.129Z,19.00
2019-03-02T14:28:42.354Z,14.80
2019-03-02T14:31:37.888Z,17.23
2019-03-02T14:34:25.493Z,17.40
2019-03-02T14:37:14.060Z,12.60
2019-03-02T14:39:54.471Z,12.20
2019-03-02T14:42:33.115Z,12.73
2019-03-02T14:45:25.032Z,12.30
2019-03-02T14:48:26.901Z,12.30
2019-03-02T14:51:20.770Z,11.50
2019-03-02T14:54:11.458Z,13.73
2019-03-02T14:56:56.235Z,12.60
2019-03-02T14:59:58.759Z,13.17
2019-03-02T15:03:10.932Z,13.37
2019-03-02T15:06:09.322Z,13.07
2019-03-02T15:09:08.803Z,12.80
2019-03-02T15:11:56.133Z,12.00
2019-03-02T15:14:44.406Z,15.17
2019-03-02T15:17:29.620Z,15.60
2019-03-02T15:20:24.232Z,14.20
2019-03-02T15:23:08.774Z,14.00
2019-03-02T15:26:06.325Z,17.60
2019-03-02T15:28:50.003Z,14.37
2019-03-02T15:31:52.705Z,17.23
2019-03-02T15:34:49.960Z,19.30
2019-03-02T15:37:33.606Z,16.17
2019-03-02T15:40:32.315Z,19.10
2019-03-02T15:43:25.060Z,18.80
2019-03-02T15:46:20.359Z,16.77
2019-03-02T15:49:03.626Z,18.30
2019-03-02T15:51:42.365Z,22.53
2019-03-02T15:54:29.033Z,18.53
2019-03-02T15:57:05.912Z,15.03
2019-03-02T15:59:57.660Z,16.37
2019-03-02T16:02:59.254Z,13.20
2019-03-02T16:05:57.606Z,14.57
2019-03-02T16:09:00.443Z,15.00
2019-03-02T16:11:53.704Z,13.93
2019-03-02T16:15:00.719Z,19.53
2019-03-02T16:18:00.686Z,18.13
2019-03-02T16:20:48.349Z,21.30
2019-03-02T16:23:50.859Z,21.70
2019-03-02T16:26:45.429Z,17.00
2019-03-02T16:29:29.787Z,19.00
2019-03-02T16:32:27.093Z,19.10
2019-03-02T16:35:25.770Z,16.50
2019-03-02T16:38:27.041Z,18.10
2019-03-02T16:41:18.803Z,17.87
2019-03-02T16:44:18.346Z,23.13
2019-03-02T16:47:25.045Z,21.47
2019-03-02T16:50:16.848Z,21.13
2019-03-02T16:53:22.427Z,20.33
2019-03-02T16:56:21.247Z,19.20
2019-03-02T16:59:19.176Z,15.47
2019-03-02T17:02:13.181Z,18.40
2019-03-02T17:05:16.929Z,20.43
2019-03-02T17:08:10.113Z,17.90
2019-03-02T17:11:07.080Z,25.77
2019-03-02T17:13:45.496Z,18.17
2019-03-02T17:16:32.140Z,22.23
2019-03-02T17:19:20.167Z,17.93
2019-03-02T17:22:02.047Z,27.03
2019-03-02T17:24:51.032Z,18.97
2019-03-02T17:27:37.096Z,20.83
2019-03-02T17:30:24.975Z,26.00
2019-03-02T17:33:15.065Z,18.67
2019-03-02T17:35:53.994Z,24.63
2019-03-02T17:38:51.328Z,23.93
2019-03-02T17:41:51.361Z,18.93
2019-03-02T17:44:38.651Z,23.63
2019-03-02T17:47:23.058Z,21.43
2019-03-02T17:50:00.034Z,24.13
2019-03-02T17:52:54.897Z,18.60
2019-03-02T17:56:01.011Z,23.73
2019-03-02T17:58:50.102Z,20.43
2019-03-02T18:01:45.159Z,24.83
2019-03-02T18:04:39.302Z,24.57
2019-03-02T18:07:38.363Z,23.23
2019-03-02T18:10:47.829Z,21.73
2019-03-02T18:13:47.868Z,23.17
2019-03-02T18:16:41.315Z,24.13
2019-03-02T18:19:14.372Z,23.60
2019-03-02T18:21:48.645Z,24.73
2019-03-02T18:24:21.556Z,25.23
2019-03-02T18:26:57.019Z,22.10
2019-03-02T18:29:30.726Z,28.20
2019-03-02T18:32:02.396Z,26.23
2019-03-02T18:34:33.616Z,24.90
2019-03-02T18:37:06.975Z,29.97
2019-03-02T18:39:38.625Z,28.27
2019-03-02T18:42:11.661Z,27.47
2019-03-02T18:44:45.357Z,25.40
2019-03-02T18:47:17.467Z,27.23
2019-03-02T18:50:08.501Z,23.60
2019-03-02T18:53:13.270Z,23.87
2019-03-02T18:55:45.752Z,22.33
2019-03-02T18:58:18.704Z,25.77
2019-03-02T19:00:54.109Z,25.53
2019-03-02T19:03:27.772Z,27.47
2019-03-02T19:05:58.987Z,39.07
2019-03-02T19:08:32.486Z,43.87
2019-03-02T19:11:04.435Z,43.17
2019-03-02T19:13:36.557Z,31.53
2019-03-02T19:16:10.731Z,25.00
2019-03-02T19:18:44.164Z,30.70
2019-03-02T19:21:16.561Z,36.90
2019-03-02T19:23:48.567Z,30.77
2019-03-02T19:26:21.399Z,27.73
2019-03-02T19:28:55.618Z,29.70
2019-03-02T19:31:28.779Z,28.10
2019-03-02T19:34:00.582Z,27.03
2019-03-02T19:36:32.763Z,30.77
2019-03-02T19:39:19.773Z,29.73
2019-03-02T19:41:55.599Z,30.43
2019-03-02T19:44:27.881Z,27.30
2019-03-02T19:46:59.673Z,24.67
2019-03-02T19:49:34.468Z,29.80
2019-03-02T19:52:09.087Z,35.70
2019-03-02T19:54:41.823Z,27.37
2019-03-02T19:57:14.849Z,27.23
2019-03-02T19:59:47.962Z,28.83
2019-03-02T20:02:20.772Z,25.43
2019-03-02T20:04:53.803Z,34.30
2019-03-02T20:07:27.872Z,32.03
2019-03-02T20:09:59.960Z,26.30
2019-03-02T20:12:31.896Z,26.13
2019-03-02T20:15:06.825Z,29.40
2019-03-02T20:17:40.483Z,28.37
2019-03-02T20:20:13.750Z,29.07
2019-03-02T20:22:49.271Z,36.90
2019-03-02T20:25:22.025Z,29.20
2019-03-02T20:27:53.992Z,36.33
2019-03-02T20:30:27.478Z,29.00
2019-03-02T20:33:01.703Z,26.60
2019-03-02T20:35:35.765Z,29.40
2019-03-02T20:38:11.126Z,30.30
2019-03-02T20:40:46.684Z,33.40
2019-03-02T20:43:19.452Z,28.10
2019-03-02T20:45:51.028Z,28.33
2019-03-02T20:48:24.608Z,29.53
2019-03-02T20:50:58.090Z,29.33
2019-03-02T20:53:29.359Z,27.40
2019-03-02T20:56:03.791Z,27.03
2019-03-02T20:58:37.823Z,35.30
2019-03-02T21:01:15.231Z,28.30
2019-03-02T21:03:48.659Z,25.87
2019-03-02T21:06:22.844Z,31.07
2019-03-02T21:08:54.107Z,28.63
2019-03-02T21:11:26.158Z,35.37
2019-03-02T21:14:00.195Z,38.23
2019-03-02T21:16:36.105Z,26.17
2019-03-02T21:19:07.426Z,29.57
2019-03-02T21:21:39.251Z,22.33
2019-03-02T21:24:12.356Z,26.80
2019-03-02T21:26:46.879Z,25.03
2019-03-02T21:29:20.746Z,30.23
2019-03-02T21:31:54.284Z,25.63
2019-03-02T21:34:27.171Z,27.80
2019-03-02T21:37:00.798Z,29.63
2019-03-02T21:39:32.267Z,24.13
2019-03-02T21:42:05.392Z,24.30
2019-03-02T21:44:37.296Z,21.67
2019-03-02T21:47:10.417Z,24.60
2019-03-02T21:49:42.157Z,21.13
2019-03-02T21:52:15.446Z,26.40
2019-03-02T21:54:48.448Z,24.53
2019-03-02T21:57:20.181Z,23.10
2019-03-02T21:59:54.789Z,24.10
2019-03-02T22:02:27.307Z,24.37
2019-03-02T22:04:58.481Z,25.00
2019-03-02T22:07:30.405Z,30.73
2019-03-02T22:10:01.602Z,23.80
2019-03-02T22:12:33.765Z,27.30
2019-03-02T22:15:10.618Z,29.97
2019-03-02T22:17:46.099Z,22.70
2019-03-02T22:20:19.451Z,24.87
2019-03-02T22:22:53.162Z,22.90
2019-03-02T22:25:27.472Z,25.60
2019-03-02T22:28:00.545Z,26.90
2019-03-02T22:30:36.050Z,22.70
2019-03-02T22:33:08.867Z,24.80
2019-03-02T22:35:43.322Z,22.73
2019-03-02T22:38:15.570Z,19.80
2019-03-02T22:40:49.384Z,22.20
2019-03-02T22:43:23.499Z,28.90
2019-03-02T22:45:57.472Z,26.30
2019-03-02T22:48:29.911Z,25.47
2019-03-02T22:51:05.400Z,34.27
2019-03-02T22:53:37.622Z,30.90
2019-03-02T22:56:09.727Z,29.63
2019-03-02T22:58:41.575Z,34.33
2019-03-02T23:02:06.686Z,26.50
2019-03-02T23:04:47.235Z,26.63
2019-03-02T23:07:18.752Z,30.00
2019-03-02T23:09:51.564Z,25.00
2019-03-02T23:12:24.682Z,24.53
2019-03-02T23:14:57.569Z,27.47
2019-03-02T23:17:31.827Z,28.63
2019-03-02T23:20:03.674Z,25.40
2019-03-02T23:22:35.506Z,30.60
2019-03-02T23:25:07.696Z,28.67
2019-03-02T23:27:38.965Z,25.13
2019-03-02T23:30:14.976Z,27.20
2019-03-02T23:32:49.956Z,28.10
2019-03-02T23:35:24.952Z,29.13
2019-03-02T23:37:58.382Z,24.57
2019-03-02T23:40:30.702Z,27.60
2019-03-02T23:43:03.902Z,30.40
2019-03-02T23:45:35.876Z,28.17
2019-03-02T23:48:09.890Z,32.30
2019-03-02T23:50:42.866Z,27.50
2019-03-02T23:53:15.872Z,26.90
2019-03-02T23:55:49.771Z,26.00
2019-03-02T23:58:20.946Z,31.60
